Time;durP1;ratioP1;P1;durP2;ratioP2;P2;SDS_P1;SDS_P2;PMS_P1;PMS_P2;Temp;Humidity;BMP_temperature;BMP_pressure;BME280_temperature;BME280_humidity;BME280_pressure;Samples;Min_cycle;Max_cycle;Signal;HPM_P1;HPM_P2
2022/05/17 00:00:41;;;;;;;1.00;0.32;;;14.60;72.40;;;;;;5096460;28;20077;-75
2022/05/17 00:03:07;;;;;;;0.30;0.30;;;14.50;72.40;;;;;;5096636;28;20043;-75
2022/05/17 00:05:33;;;;;;;0.88;0.47;;;14.50;72.50;;;;;;5114480;28;20093;-75
2022/05/17 00:07:59;;;;;;;0.47;0.45;;;14.50;73.20;;;;;;5096336;28;20138;-75
2022/05/17 00:10:25;;;;;;;0.40;0.40;;;14.40;72.50;;;;;;5079314;28;20123;-75
2022/05/17 00:12:51;;;;;;;0.35;0.35;;;14.40;72.60;;;;;;5115026;28;20500;-75
2022/05/17 00:15:18;;;;;;;0.20;0.20;;;14.50;72.70;;;;;;5096471;28;20035;-75
2022/05/17 00:17:46;;;;;;;0.45;0.43;;;14.40;72.60;;;;;;5096374;28;20083;-75
2022/05/17 00:20:13;;;;;;;0.93;0.55;;;14.50;72.70;;;;;;5079351;28;20035;-75
2022/05/17 00:22:39;;;;;;;0.80;0.52;;;14.40;72.60;;;;;;5114387;28;20051;-75
2022/05/17 00:25:08;;;;;;;0.85;0.40;;;14.40;72.70;;;;;;5114215;28;20141;-76
2022/05/17 00:27:34;;;;;;;0.98;0.45;;;14.40;72.80;;;;;;5114509;28;20075;-75
2022/05/17 00:30:01;;;;;;;1.08;0.50;;;14.40;73.50;;;;;;5114762;28;20043;-75
2022/05/17 00:32:26;;;;;;;0.90;0.50;;;14.40;72.80;;;;;;5114421;28;20114;-75
2022/05/17 00:34:52;;;;;;;0.40;0.40;;;14.50;72.90;;;;;;5114223;28;20462;-74
2022/05/17 00:37:18;;;;;;;1.25;0.70;;;14.40;72.90;;;;;;5114367;28;20035;-75
2022/05/17 00:39:43;;;;;;;0.47;0.38;;;14.40;72.90;;;;;;5114152;28;20031;-75
2022/05/17 00:42:09;;;;;;;0.45;0.30;;;14.50;72.90;;;;;;5114077;28;20039;-75
2022/05/17 00:44:42;;;;;;;0.38;0.38;;;14.50;72.90;;;;;;5114634;28;20042;-75
2022/05/17 00:47:29;;;;;;;2.03;0.40;;;14.50;72.80;;;;;;5113911;28;20047;-74
2022/05/17 00:50:15;;;;;;;0.30;0.30;;;14.50;72.90;;;;;;5081356;28;20511;-74
2022/05/17 00:52:48;;;;;;;1.15;0.50;;;14.50;72.80;;;;;;5113087;28;20039;-75
2022/05/17 00:55:19;;;;;;;0.60;0.57;;;14.50;72.60;;;;;;5096654;28;20035;-75
2022/05/17 00:57:55;;;;;;;0.20;0.20;;;14.40;72.70;;;;;;5113948;28;20046;-75
2022/05/17 01:00:22;;;;;;;0.55;0.40;;;14.50;72.90;;;;;;5114136;28;20035;-75
2022/05/17 01:02:53;;;;;;;1.58;0.50;;;14.50;72.90;;;;;;5111466;28;20382;-75
2022/05/17 01:05:21;;;;;;;0.70;0.35;;;14.50;73.10;;;;;;5095646;28;20118;-75
2022/05/17 01:07:52;;;;;;;0.45;0.30;;;14.40;73.10;;;;;;5113616;28;20047;-75
2022/05/17 01:10:18;;;;;;;;;;;14.40;73.20;;;;;;5114159;28;20088;-75
2022/05/17 01:12:43;;;;;;;0.22;0.22;;;14.40;73.20;;;;;;5113562;28;19923;-75
2022/05/17 01:15:11;;;;;;;1.05;0.40;;;14.30;73.10;;;;;;5113680;28;20035;-75
2022/05/17 01:17:40;;;;;;;0.32;0.32;;;14.30;73.20;;;;;;5095743;28;20036;-75
2022/05/17 01:20:11;;;;;;;0.20;0.20;;;14.30;73.30;;;;;;5113664;28;20031;-75
2022/05/17 01:22:37;;;;;;;1.23;0.63;;;14.30;73.40;;;;;;5113242;28;20039;-74
2022/05/17 01:25:04;;;;;;;0.77;0.50;;;14.30;73.50;;;;;;5095105;28;20031;-75
2022/05/17 01:27:45;;;;;;;0.40;0.40;;;14.20;73.50;;;;;;5113438;28;20047;-75
2022/05/17 01:30:22;;;;;;;0.40;0.40;;;14.20;73.50;;;;;;5113846;28;20046;-75
2022/05/17 01:32:48;;;;;;;0.30;0.30;;;14.30;73.60;;;;;;5113205;28;20047;-75
2022/05/17 01:35:14;;;;;;;1.25;0.30;;;14.20;73.40;;;;;;5113505;28;20149;-75
2022/05/17 01:37:40;;;;;;;0.47;0.40;;;14.30;73.50;;;;;;5113225;28;20145;-75
2022/05/17 01:40:07;;;;;;;0.52;0.50;;;14.30;73.40;;;;;;5094934;28;20044;-75
2022/05/17 01:42:33;;;;;;;0.50;0.40;;;14.30;73.40;;;;;;5094758;28;20118;-75
2022/05/17 01:44:59;;;;;;;0.90;0.47;;;14.30;73.40;;;;;;5094779;28;20128;-75
2022/05/17 01:47:24;;;;;;;0.57;0.57;;;14.30;73.50;;;;;;5078060;28;20143;-75
2022/05/17 01:49:50;;;;;;;0.65;0.50;;;14.30;73.50;;;;;;5112922;28;20047;-75
2022/05/17 01:52:16;;;;;;;0.30;0.30;;;14.30;73.60;;;;;;5094859;28;20050;-75
2022/05/17 01:54:41;;;;;;;1.63;0.50;;;14.30;73.60;;;;;;5112821;28;20043;-75
2022/05/17 01:57:07;;;;;;;0.82;0.50;;;14.30;73.60;;;;;;5112740;28;20089;-75
2022/05/17 01:59:34;;;;;;;0.57;0.57;;;14.30;73.70;;;;;;5077634;28;20466;-75
2022/05/17 02:01:59;;;;;;;0.55;0.55;;;14.30;73.70;;;;;;5113318;28;20064;-75
2022/05/17 02:04:25;;;;;;;0.85;0.43;;;14.30;73.80;;;;;;5113052;28;20070;-75
2022/05/17 02:06:51;;;;;;;0.50;0.43;;;14.30;73.80;;;;;;5112809;28;20396;-75
2022/05/17 02:09:17;;;;;;;0.32;0.32;;;14.30;73.80;;;;;;5113144;28;20089;-75
2022/05/17 02:11:43;;;;;;;0.80;0.35;;;14.30;73.80;;;;;;5112910;28;20089;-75
2022/05/17 02:14:08;;;;;;;0.38;0.30;;;14.40;73.90;;;;;;5094259;28;20539;-75
2022/05/17 02:16:37;;;;;;;1.08;0.60;;;14.30;73.80;;;;;;5094462;28;20043;-75
2022/05/17 02:19:03;;;;;;;0.93;0.50;;;14.40;73.90;;;;;;5093610;28;20424;-75
2022/05/17 02:21:29;;;;;;;0.40;0.40;;;14.40;73.90;;;;;;5112686;28;20028;-75
2022/05/17 02:23:55;;;;;;;0.43;0.35;;;14.40;73.90;;;;;;5112565;28;20047;-75
2022/05/17 02:26:21;;;;;;;0.70;0.50;;;14.40;73.90;;;;;;5113126;28;20043;-75
2022/05/17 02:28:47;;;;;;;0.95;0.50;;;14.40;73.90;;;;;;5094540;28;20464;-75
2022/05/17 02:31:16;;;;;;;0.65;0.50;;;14.50;73.90;;;;;;5112442;28;20435;-75
2022/05/17 02:33:42;;;;;;;0.47;0.43;;;14.50;73.90;;;;;;5112646;28;20048;-75
2022/05/17 02:36:07;;;;;;;0.55;0.50;;;14.50;73.90;;;;;;5112366;28;20038;-75
2022/05/17 02:38:33;;;;;;;0.45;0.38;;;14.50;73.90;;;;;;5112366;28;20078;-75
2022/05/17 02:40:59;;;;;;;0.40;0.30;;;14.50;73.90;;;;;;5112425;28;20460;-75
2022/05/17 02:43:25;;;;;;;0.68;0.55;;;14.50;74.00;;;;;;5094244;28;20036;-75
2022/05/17 02:45:53;;;;;;;1.13;0.40;;;14.50;74.00;;;;;;5112545;28;20063;-75
2022/05/17 02:48:18;;;;;;;0.75;0.47;;;14.50;74.00;;;;;;5112840;28;20051;-75
2022/05/17 02:50:44;;;;;;;0.60;0.47;;;14.50;74.10;;;;;;5112597;28;20077;-75
2022/05/17 02:53:10;;;;;;;0.50;0.50;;;14.60;74.20;;;;;;5112429;28;20039;-75
2022/05/17 02:55:36;;;;;;;0.50;0.50;;;14.50;74.20;;;;;;5094151;28;20553;-75
2022/05/17 02:58:03;;;;;;;0.88;0.70;;;14.50;74.30;;;;;;5112235;28;20477;-75
2022/05/17 03:00:29;;;;;;;0.30;0.30;;;14.50;74.30;;;;;;5076711;28;20111;-75
2022/05/17 03:02:55;;;;;;;1.98;0.60;;;14.50;74.30;;;;;;5094331;28;20040;-75
2022/05/17 03:05:21;;;;;;;1.25;0.63;;;14.50;74.40;;;;;;5112314;28;20389;-75
2022/05/17 03:07:48;;;;;;;0.30;0.30;;;14.50;74.50;;;;;;5112056;28;20393;-75
2022/05/17 03:10:14;;;;;;;0.65;0.50;;;14.50;75.20;;;;;;5111802;28;20093;-75
2022/05/17 03:12:40;;;;;;;0.55;0.55;;;14.50;74.70;;;;;;5111802;28;20071;-75
2022/05/17 03:15:07;;;;;;;0.30;0.30;;;14.50;74.70;;;;;;5112116;28;20039;-74
2022/05/17 03:17:33;;;;;;;1.00;0.60;;;14.40;74.70;;;;;;5110272;28;20465;-74
2022/05/17 03:19:58;;;;;;;0.95;0.50;;;14.40;74.70;;;;;;5094326;28;20105;-74
2022/05/17 03:22:24;;;;;;;0.80;0.35;;;14.40;74.80;;;;;;5111784;28;20040;-74
2022/05/17 03:24:51;;;;;;;0.30;0.30;;;14.40;74.90;;;;;;5112068;28;20042;-75
2022/05/17 03:27:19;;;;;;;0.68;0.40;;;14.40;74.90;;;;;;5111752;28;20057;-74
2022/05/17 03:29:45;;;;;;;0.95;0.50;;;14.40;75.00;;;;;;5093423;28;20051;-74
2022/05/17 03:32:11;;;;;;;0.57;0.50;;;14.40;75.00;;;;;;5115268;28;20047;-74
2022/05/17 03:34:38;;;;;;;0.73;0.45;;;14.40;75.10;;;;;;5115140;28;20058;-74
2022/05/17 03:37:04;;;;;;;0.52;0.40;;;14.30;75.10;;;;;;5096980;28;20062;-74
2022/05/17 03:39:29;;;;;;;0.65;0.65;;;14.30;75.00;;;;;;5115378;28;20405;-74
2022/05/17 03:41:55;;;;;;;1.20;0.60;;;14.30;75.10;;;;;;5114960;28;20107;-75
2022/05/17 03:44:21;;;;;;;0.82;0.45;;;14.30;75.10;;;;;;5115052;28;20040;-75
2022/05/17 03:46:47;;;;;;;0.85;0.50;;;14.40;75.20;;;;;;5096850;28;20031;-74
2022/05/17 03:49:13;;;;;;;0.50;0.50;;;14.40;75.20;;;;;;5097343;28;20363;-74
2022/05/17 03:51:39;;;;;;;0.30;0.30;;;14.30;75.00;;;;;;5096728;28;20039;-74
2022/05/17 03:54:05;;;;;;;0.80;0.50;;;14.40;75.10;;;;;;5115153;28;20040;-74
2022/05/17 03:56:31;;;;;;;0.38;0.38;;;14.40;75.10;;;;;;5096679;28;20051;-74
2022/05/17 03:58:57;;;;;;;0.38;0.32;;;14.40;75.20;;;;;;5114671;28;20031;-74
2022/05/17 04:01:22;;;;;;;0.40;0.40;;;14.40;75.20;;;;;;5096741;28;20508;-75
2022/05/17 04:03:48;;;;;;;0.40;0.38;;;14.40;75.10;;;;;;5115307;28;20405;-74
2022/05/17 04:06:14;;;;;;;0.93;0.40;;;14.40;75.10;;;;;;5115248;28;20039;-74
2022/05/17 04:08:40;;;;;;;0.30;0.30;;;14.40;75.00;;;;;;5115389;28;20043;-74
2022/05/17 04:11:06;;;;;;;0.50;0.40;;;14.30;74.90;;;;;;5114686;28;20031;-74
2022/05/17 04:13:33;;;;;;;0.40;0.40;;;14.50;75.00;;;;;;5115015;28;20145;-74
2022/05/17 04:16:00;;;;;;;0.73;0.50;;;14.50;74.90;;;;;;5096232;28;20515;-74
2022/05/17 04:18:27;;;;;;;0.40;0.40;;;14.50;74.90;;;;;;5114648;28;20028;-74
2022/05/17 04:20:59;;;;;;;1.00;0.60;;;14.60;74.90;;;;;;5114702;28;20096;-74
2022/05/17 04:23:25;;;;;;;0.40;0.40;;;14.60;74.80;;;;;;5112659;28;20061;-74
2022/05/17 04:25:50;;;;;;;0.40;0.40;;;14.70;74.80;;;;;;5114590;28;20096;-74
2022/05/17 04:28:17;;;;;;;0.88;0.60;;;14.70;74.70;;;;;;5114586;28;20040;-74
2022/05/17 04:30:44;;;;;;;0.70;0.50;;;14.80;74.70;;;;;;5114652;28;20039;-74
2022/05/17 04:33:10;;;;;;;1.40;0.55;;;14.80;74.70;;;;;;5114487;28;20044;-74
2022/05/17 04:35:36;;;;;;;0.30;0.30;;;14.80;74.60;;;;;;5114696;28;20047;-74
2022/05/17 04:38:03;;;;;;;0.55;0.38;;;14.90;74.60;;;;;;5114981;28;20040;-74
2022/05/17 04:40:28;;;;;;;1.40;0.60;;;14.90;74.60;;;;;;5114223;28;20067;-74
2022/05/17 04:42:57;;;;;;;0.68;0.50;;;14.90;74.60;;;;;;5114012;28;20070;-74
2022/05/17 04:45:23;;;;;;;0.63;0.40;;;14.90;74.60;;;;;;5096571;28;20043;-75
2022/05/17 04:47:49;;;;;;;0.32;0.32;;;14.90;74.60;;;;;;5114436;28;20044;-75
2022/05/17 04:50:17;;;;;;;0.80;0.50;;;15.00;74.60;;;;;;5114354;28;20036;-75
2022/05/17 04:52:44;;;;;;;0.43;0.30;;;15.00;74.60;;;;;;5094084;28;20040;-75
2022/05/17 04:55:11;;;;;;;0.63;0.55;;;15.00;74.60;;;;;;5114137;28;20046;-75
2022/05/17 04:57:38;;;;;;;0.85;0.50;;;15.00;74.60;;;;;;5114632;28;20047;-75
2022/05/17 05:00:06;;;;;;;0.63;0.50;;;15.20;74.70;;;;;;5113788;28;20554;-75
2022/05/17 05:02:32;;;;;;;0.40;0.40;;;15.10;74.60;;;;;;5114059;28;20040;-75
2022/05/17 05:04:58;;;;;;;0.30;0.30;;;15.20;74.60;;;;;;5114086;28;20512;-75
2022/05/17 05:07:23;;;;;;;0.40;0.40;;;15.20;74.60;;;;;;5114257;28;20062;-75
2022/05/17 05:09:49;;;;;;;0.30;0.30;;;15.20;74.60;;;;;;5113874;28;20067;-75
2022/05/17 05:12:15;;;;;;;0.70;0.57;;;15.30;74.60;;;;;;5095391;28;20040;-74
2022/05/17 05:14:41;;;;;;;0.40;0.40;;;15.20;74.50;;;;;;5113624;28;20040;-75
2022/05/17 05:17:09;;;;;;;0.38;0.38;;;15.30;74.60;;;;;;5113863;28;20118;-75
2022/05/17 05:19:35;;;;;;;0.77;0.70;;;15.40;74.60;;;;;;5113583;28;20040;-74
2022/05/17 05:22:01;;;;;;;0.40;0.40;;;15.40;74.60;;;;;;5113611;28;20035;-74
2022/05/17 05:24:27;;;;;;;0.40;0.32;;;15.40;74.50;;;;;;5113498;28;20032;-74
2022/05/17 05:26:53;;;;;;;0.40;0.40;;;15.60;74.60;;;;;;5113783;28;20485;-74
2022/05/17 05:29:18;;;;;;;0.50;0.50;;;15.60;74.60;;;;;;5113780;28;20401;-74
2022/05/17 05:31:44;;;;;;;0.50;0.50;;;15.60;74.50;;;;;;5095340;28;20035;-74
2022/05/17 05:34:10;;;;;;;0.63;0.52;;;15.70;74.50;;;;;;5113713;28;20457;-74
2022/05/17 05:36:36;;;;;;;0.47;0.47;;;15.70;74.50;;;;;;5113451;28;20147;-74
2022/05/17 05:39:03;;;;;;;1.13;0.50;;;15.80;74.50;;;;;;5113460;28;20093;-74
2022/05/17 05:41:29;;;;;;;0.57;0.57;;;15.80;74.40;;;;;;5095349;28;20465;-75
2022/05/17 05:43:54;;;;;;;1.02;0.85;;;15.90;74.50;;;;;;5113990;28;20127;-74
2022/05/17 05:46:21;;;;;;;0.47;0.40;;;16.00;74.60;;;;;;5113453;28;20443;-74
2022/05/17 05:48:47;;;;;;;0.80;0.80;;;15.90;74.50;;;;;;5078250;28;20039;-74
2022/05/17 05:51:13;;;;;;;0.73;0.60;;;16.00;74.50;;;;;;5113232;28;20096;-74
2022/05/17 05:53:39;;;;;;;0.75;0.70;;;16.00;74.50;;;;;;5113864;28;20039;-75
2022/05/17 05:56:05;;;;;;;1.40;0.70;;;16.10;74.60;;;;;;5113152;28;20115;-74
2022/05/17 05:58:34;;;;;;;0.47;0.47;;;16.10;74.60;;;;;;5113752;28;20038;-74
2022/05/17 06:01:00;;;;;;;0.90;0.50;;;16.10;74.60;;;;;;5078122;28;20071;-75
2022/05/17 06:03:27;;;;;;;0.65;0.65;;;16.20;74.60;;;;;;5113099;28;20477;-74
2022/05/17 06:05:53;;;;;;;0.80;0.80;;;16.20;74.50;;;;;;5113068;28;20046;-74
2022/05/17 06:08:19;;;;;;;0.60;0.50;;;16.30;74.60;;;;;;5094918;28;20047;-75
2022/05/17 06:10:45;;;;;;;0.55;0.55;;;16.30;74.50;;;;;;5112997;28;20035;-74
2022/05/17 06:13:14;;;;;;;0.73;0.60;;;16.40;74.60;;;;;;5094622;28;20059;-74
2022/05/17 06:15:40;;;;;;;0.50;0.50;;;16.30;74.50;;;;;;5094979;28;20049;-75
2022/05/17 06:18:07;;;;;;;0.80;0.50;;;16.40;74.50;;;;;;5112645;28;20184;-74
2022/05/17 06:20:34;;;;;;;0.90;0.73;;;16.50;74.70;;;;;;5094579;28;20393;-76
2022/05/17 06:23:00;;;;;;;0.93;0.60;;;16.50;74.60;;;;;;5112643;28;20050;-76
2022/05/17 06:25:26;;;;;;;1.35;0.80;;;16.60;74.60;;;;;;5112952;28;20039;-76
2022/05/17 06:27:52;;;;;;;0.70;0.70;;;16.60;74.50;;;;;;5113165;28;20070;-76
2022/05/17 06:30:18;;;;;;;0.88;0.70;;;16.70;75.10;;;;;;5095160;28;20066;-75
2022/05/17 06:32:44;;;;;;;0.63;0.60;;;16.80;74.30;;;;;;5077426;28;20039;-75
2022/05/17 06:35:12;;;;;;;1.05;0.93;;;16.80;74.20;;;;;;5112922;28;20047;-76
2022/05/17 06:37:38;;;;;;;0.93;0.80;;;16.90;74.00;;;;;;5111105;28;20047;-75
2022/05/17 06:40:06;;;;;;;2.03;1.00;;;17.00;74.00;;;;;;5077662;28;20047;-75
2022/05/17 06:42:32;;;;;;;0.98;0.88;;;17.20;73.80;;;;;;5112573;28;20084;-72
2022/05/17 06:44:58;;;;;;;1.48;0.80;;;17.20;73.60;;;;;;5112358;28;20043;-72
2022/05/17 06:47:25;;;;;;;0.73;0.73;;;17.30;73.60;;;;;;5112156;28;20052;-72
2022/05/17 06:49:52;;;;;;;1.48;0.80;;;17.40;73.40;;;;;;5077560;28;20031;-73
2022/05/17 06:52:18;;;;;;;2.08;0.82;;;17.60;73.40;;;;;;5077090;28;20035;-72
2022/05/17 06:54:44;;;;;;;0.63;0.63;;;17.50;73.20;;;;;;5094141;28;20046;-73
2022/05/17 06:57:13;;;;;;;1.48;0.80;;;17.70;73.20;;;;;;5093765;28;20079;-73
2022/05/17 06:59:41;;;;;;;0.93;0.80;;;17.70;73.00;;;;;;5093919;28;20490;-73
2022/05/17 07:02:07;;;;;;;1.50;0.70;;;17.80;72.90;;;;;;5094105;28;20048;-73
2022/05/17 07:04:34;;;;;;;0.70;0.70;;;17.90;72.80;;;;;;5112019;28;20040;-73
2022/05/17 07:07:01;;;;;;;1.33;0.75;;;17.90;72.80;;;;;;5080142;28;20032;-73
2022/05/17 07:09:27;;;;;;;1.15;0.80;;;17.90;72.80;;;;;;5097368;28;20084;-73
2022/05/17 07:14:37;;;;;;;1.02;0.80;;;18.00;73.00;;;;;;5115606;28;20039;-72
2022/05/17 07:17:04;;;;;;;1.17;0.70;;;18.00;73.00;;;;;;5115632;28;20520;-72
2022/05/17 07:19:32;;;;;;;0.73;0.70;;;18.00;73.00;;;;;;5097271;28;20135;-73
2022/05/17 07:21:59;;;;;;;0.70;0.70;;;18.10;73.10;;;;;;5113841;28;20538;-73
2022/05/17 07:24:25;;;;;;;0.77;0.75;;;18.10;73.80;;;;;;5115338;28;20044;-73
2022/05/17 07:26:50;;;;;;;0.88;0.70;;;18.00;73.20;;;;;;5097334;28;20054;-73
2022/05/17 07:29:16;;;;;;;0.82;0.65;;;18.10;73.30;;;;;;5115459;28;20071;-73
2022/05/17 07:31:42;;;;;;;1.15;0.90;;;18.00;73.30;;;;;;5080454;28;20397;-74
2022/05/17 07:34:07;;;;;;;0.80;0.70;;;18.20;73.40;;;;;;5097114;28;20075;-75
2022/05/17 07:36:33;;;;;;;0.73;0.60;;;18.10;73.40;;;;;;5115452;28;20036;-75
2022/05/17 07:38:59;;;;;;;1.48;0.70;;;18.10;73.40;;;;;;5080431;28;20401;-75
2022/05/17 07:41:25;;;;;;;1.40;0.75;;;18.20;73.40;;;;;;5097053;28;20397;-75
2022/05/17 07:43:51;;;;;;;1.38;0.90;;;18.20;73.40;;;;;;5097000;28;20046;-75
2022/05/17 07:46:17;;;;;;;1.63;0.80;;;18.20;73.40;;;;;;5115108;28;20047;-75
2022/05/17 07:48:43;;;;;;;0.73;0.73;;;18.10;73.40;;;;;;5115786;28;20043;-75
2022/05/17 07:51:09;;;;;;;1.90;0.73;;;18.20;73.40;;;;;;5096909;28;20055;-75
2022/05/17 07:53:36;;;;;;;0.75;0.75;;;18.20;73.40;;;;;;5115209;28;20039;-74
2022/05/17 07:56:04;;;;;;;1.00;0.80;;;18.20;73.50;;;;;;5115065;28;20065;-74
2022/05/17 07:58:30;;;;;;;0.93;0.60;;;18.20;73.50;;;;;;5080136;28;20067;-75
2022/05/17 08:00:55;;;;;;;0.73;0.60;;;18.20;73.50;;;;;;5115398;28;20066;-74
2022/05/17 08:03:21;;;;;;;0.85;0.60;;;18.10;73.50;;;;;;5114939;28;20067;-74
2022/05/17 08:05:48;;;;;;;1.20;0.90;;;18.10;73.60;;;;;;5114722;28;20039;-74
2022/05/17 08:08:13;;;;;;;0.85;0.70;;;18.20;73.60;;;;;;5096804;28;20040;-74
2022/05/17 08:10:39;;;;;;;0.73;0.63;;;18.20;73.60;;;;;;5096646;28;20130;-74
2022/05/17 08:13:06;;;;;;;0.57;0.50;;;18.20;73.60;;;;;;5115272;28;20046;-74
2022/05/17 08:15:32;;;;;;;0.60;0.60;;;18.20;73.50;;;;;;5114515;28;20553;-74
2022/05/17 08:17:58;;;;;;;0.65;0.60;;;18.30;73.50;;;;;;5113909;28;20044;-75
2022/05/17 08:20:25;;;;;;;0.73;0.50;;;18.30;73.40;;;;;;5080084;28;20059;-75
2022/05/17 08:22:50;;;;;;;0.50;0.50;;;18.30;73.30;;;;;;5096298;28;20426;-73
2022/05/17 08:28:03;;;;;;;0.82;0.60;;;18.50;73.30;;;;;;5098686;28;20082;-72
2022/05/17 08:30:29;;;;;;;0.60;0.47;;;18.50;73.10;;;;;;5114512;28;20096;-74
2022/05/17 08:35:54;;;;;;;0.65;0.50;;;18.60;72.90;;;;;;5098909;28;20050;-74
2022/05/17 08:38:38;;;;;;;1.45;0.63;;;18.60;72.80;;;;;;5112691;28;20042;-72
2022/05/17 08:41:25;;;;;;;1.23;0.52;;;18.70;72.80;;;;;;5112486;28;20118;-73
2022/05/17 08:44:00;;;;;;;0.50;0.50;;;18.70;72.80;;;;;;5112817;28;20040;-73
2022/05/17 08:47:06;;;;;;;0.98;0.77;;;18.80;72.80;;;;;;5114027;28;20497;-76
2022/05/17 08:49:41;;;;;;;2.20;0.60;;;18.70;72.60;;;;;;5084852;28;20047;-74
2022/05/17 08:52:14;;;;;;;0.70;0.70;;;18.80;72.60;;;;;;5114028;28;20054;-76
2022/05/17 08:54:49;;;;;;;1.05;0.88;;;18.80;72.60;;;;;;5113761;28;20031;-76
2022/05/17 08:57:30;;;;;;;0.63;0.60;;;18.80;72.60;;;;;;5113702;28;20114;-75
2022/05/17 09:00:02;;;;;;;2.05;0.80;;;19.00;72.70;;;;;;5093841;28;20036;-75
2022/05/17 09:03:16;;;;;;;0.52;0.50;;;18.90;72.70;;;;;;5094037;28;20044;-76
2022/05/17 09:06:24;;;;;;;0.80;0.80;;;18.90;72.70;;;;;;5113676;28;20184;-76
2022/05/17 09:09:17;;;;;;;0.65;0.50;;;19.00;72.50;;;;;;5113558;28;20173;-75
2022/05/17 09:12:07;;;;;;;0.45;0.45;;;19.10;72.40;;;;;;5112846;28;20130;-76
2022/05/17 09:14:41;;;;;;;0.87;0.57;;;19.10;72.10;;;;;;5099490;28;20067;-76
2022/05/17 09:17:11;;;;;;;1.33;0.65;;;19.20;72.00;;;;;;5093953;28;20064;-76
2022/05/17 09:19:38;;;;;;;0.65;0.50;;;19.40;71.80;;;;;;5112138;28;20040;-76
2022/05/17 09:22:06;;;;;;;1.35;0.68;;;19.40;71.70;;;;;;5096372;28;20142;-77
2022/05/17 09:24:43;;;;;;;1.02;0.80;;;19.60;71.50;;;;;;5113342;28;20516;-77
2022/05/17 09:27:31;;;;;;;0.80;0.80;;;19.60;71.20;;;;;;5113705;28;20050;-76
2022/05/17 09:30:06;;;;;;;1.17;0.60;;;19.80;71.20;;;;;;5112753;28;20039;-75
2022/05/17 09:32:37;;;;;;;1.20;0.55;;;19.80;71.00;;;;;;5113598;28;20519;-76
2022/05/17 09:35:11;;;;;;;;;;;19.80;70.80;;;;;;5095578;28;20127;-76
2022/05/17 09:37:47;;;;;;;0.50;0.40;;;19.90;70.70;;;;;;5078285;28;20257;-76
2022/05/17 09:40:30;;;;;;;0.73;0.55;;;20.00;70.80;;;;;;5078631;28;20036;-76
2022/05/17 09:43:14;;;;;;;1.08;0.60;;;19.80;70.60;;;;;;5111873;28;20123;-77
2022/05/17 09:52:35;;;;;;;0.60;0.60;;;19.60;71.30;;;;;;4990911;28;20042;-76
2022/05/17 09:55:23;;;;;;;0.90;0.70;;;19.50;71.70;;;;;;4931799;29;20047;-77
2022/05/17 09:58:33;;;;;;;1.38;0.50;;;19.50;72.10;;;;;;4901631;29;20043;-77
2022/05/17 10:01:01;;;;;;;0.60;0.60;;;19.50;72.20;;;;;;4916822;29;20031;-76
2022/05/17 10:03:37;;;;;;;1.08;0.52;;;19.50;72.20;;;;;;4933015;29;20371;-77
2022/05/17 10:06:07;;;;;;;1.15;0.60;;;19.60;72.30;;;;;;4932941;29;20043;-76
2022/05/17 10:08:42;;;;;;;0.73;0.52;;;19.70;72.10;;;;;;4932064;29;20086;-75
2022/05/17 10:11:20;;;;;;;2.35;0.60;;;19.70;71.90;;;;;;4933150;29;20055;-74
2022/05/17 10:13:57;;;;;;;0.70;0.63;;;20.00;71.60;;;;;;4933813;29;20075;-74
2022/05/17 10:16:33;;;;;;;1.10;0.63;;;20.30;71.60;;;;;;4959050;28;20043;-74
2022/05/17 10:19:09;;;;;;;0.85;0.40;;;20.70;70.10;;;;;;4991513;28;20038;-75
2022/05/17 10:21:45;;;;;;;1.05;0.68;;;21.00;69.30;;;;;;4991174;28;20488;-73
2022/05/17 10:24:27;;;;;;;1.00;0.57;;;21.30;68.80;;;;;;4990762;28;20050;-73
2022/05/17 10:27:02;;;;;;;0.82;0.70;;;21.50;68.20;;;;;;5097313;28;20052;-73
2022/05/17 10:29:38;;;;;;;2.13;1.00;;;21.60;67.70;;;;;;5112792;28;20050;-73
2022/05/17 10:32:19;;;;;;;1.00;0.85;;;21.70;67.60;;;;;;5094530;28;20040;-73
2022/05/17 10:34:55;;;;;;;1.23;0.90;;;21.70;67.70;;;;;;5112819;28;20040;-73
2022/05/17 10:37:29;;;;;;;1.45;0.73;;;21.70;67.90;;;;;;5095694;28;20489;-73
2022/05/17 10:40:01;;;;;;;1.17;0.63;;;21.70;68.10;;;;;;5112512;28;20063;-73
2022/05/17 10:42:28;;;;;;;0.50;0.50;;;21.80;68.00;;;;;;5116059;28;20036;-73
2022/05/17 10:44:58;;;;;;;0.60;0.40;;;21.80;67.80;;;;;;5097714;28;20465;-73
2022/05/17 10:47:47;;;;;;;1.42;0.73;;;21.90;67.80;;;;;;5098105;28;20040;-73
2022/05/17 10:50:34;;;;;;;0.70;0.63;;;22.00;67.80;;;;;;5097079;28;20051;-73
2022/05/17 10:53:39;;;;;;;0.70;0.50;;;22.10;67.60;;;;;;5097583;28;20054;-73
2022/05/17 10:56:22;;;;;;;0.55;0.45;;;22.20;67.40;;;;;;5099294;28;20110;-73
2022/05/17 10:58:59;;;;;;;0.50;0.50;;;22.40;67.30;;;;;;5114284;28;20039;-74
2022/05/17 11:01:47;;;;;;;1.65;0.75;;;22.30;67.00;;;;;;5114459;28;20123;-75
2022/05/17 11:04:25;;;;;;;2.05;0.77;;;22.40;66.90;;;;;;5115585;28;20043;-75
2022/05/17 11:07:07;;;;;;;1.98;0.75;;;22.60;66.90;;;;;;5115619;28;20046;-74
2022/05/17 11:09:50;;;;;;;1.17;0.70;;;22.60;66.70;;;;;;5081670;28;20042;-73
2022/05/17 11:12:19;;;;;;;0.77;0.77;;;22.70;66.70;;;;;;5097124;28;20031;-73
2022/05/17 11:14:58;;;;;;;0.82;0.68;;;22.80;66.60;;;;;;5115705;28;20055;-74
2022/05/17 11:17:40;;;;;;;1.45;0.70;;;22.80;66.50;;;;;;5081882;28;20044;-74
2022/05/17 11:20:28;;;;;;;0.93;0.77;;;22.90;66.40;;;;;;5114167;28;20044;-74
2022/05/17 11:23:13;;;;;;;0.98;0.80;;;22.90;66.20;;;;;;5114143;28;20031;-74
2022/05/17 11:26:08;;;;;;;0.43;0.40;;;23.00;66.10;;;;;;5096183;28;20040;-73
2022/05/17 11:28:53;;;;;;;1.20;0.55;;;23.10;65.90;;;;;;5096709;28;20442;-73
2022/05/17 11:31:45;;;;;;;0.70;0.50;;;23.10;65.90;;;;;;5115539;28;20040;-73
2022/05/17 11:34:32;;;;;;;1.65;0.70;;;23.20;65.90;;;;;;5096817;28;20568;-74
2022/05/17 11:37:02;;;;;;;0.90;0.70;;;23.30;65.90;;;;;;5114444;28;20050;-75
2022/05/17 11:39:46;;;;;;;0.57;0.52;;;23.30;65.80;;;;;;5115693;28;20035;-73
2022/05/17 11:42:31;;;;;;;1.27;0.60;;;23.30;65.60;;;;;;5080860;28;20046;-75
2022/05/17 11:45:19;;;;;;;0.50;0.50;;;23.50;65.70;;;;;;5114065;28;20143;-76
2022/05/17 11:47:53;;;;;;;0.65;0.50;;;23.50;65.60;;;;;;5114880;28;20040;-75
2022/05/17 11:50:42;;;;;;;0.80;0.60;;;23.60;65.50;;;;;;5115307;28;20102;-75
2022/05/17 11:53:33;;;;;;;0.77;0.63;;;23.60;65.40;;;;;;5096897;28;20093;-75
2022/05/17 11:56:20;;;;;;;1.05;0.55;;;23.70;65.30;;;;;;5113901;28;20092;-75
2022/05/17 11:58:51;;;;;;;0.98;0.60;;;23.70;65.10;;;;;;5114230;28;20039;-74
2022/05/17 12:01:42;;;;;;;0.95;0.77;;;23.80;65.10;;;;;;5097361;28;20038;-74
2022/05/17 12:04:42;;;;;;;0.80;0.70;;;23.90;65.00;;;;;;5114874;28;20482;-75
2022/05/17 12:07:23;;;;;;;1.08;0.55;;;23.90;64.80;;;;;;5114627;28;20038;-73
2022/05/17 12:09:51;;;;;;;1.67;0.68;;;24.00;64.90;;;;;;5095770;28;20431;-73
2022/05/17 12:12:52;;;;;;;0.57;0.52;;;24.10;64.70;;;;;;5115194;28;20035;-73
2022/05/17 12:15:45;;;;;;;1.38;0.65;;;24.30;64.40;;;;;;5113362;28;20039;-73
2022/05/17 12:18:32;;;;;;;0.95;0.70;;;24.30;64.20;;;;;;5114386;28;20119;-73
2022/05/17 12:21:19;;;;;;;1.38;0.80;;;24.40;64.00;;;;;;5094824;28;20366;-73
2022/05/17 12:24:16;;;;;;;1.10;0.65;;;24.40;64.50;;;;;;5115336;28;20059;-72
2022/05/17 12:26:55;;;;;;;0.65;0.55;;;24.50;63.80;;;;;;5094593;28;20489;-73
2022/05/17 12:32:10;;;;;;;1.33;0.88;;;24.50;63.80;;;;;;5098630;28;20040;-74
2022/05/17 12:34:38;;;;;;;1.30;0.70;;;24.40;63.80;;;;;;5095956;28;20112;-73
2022/05/17 12:37:10;;;;;;;1.15;0.85;;;24.60;63.90;;;;;;5114227;28;20126;-73
2022/05/17 12:45:01;;;;;;;1.45;0.93;;;24.70;63.50;;;;;;5114330;28;20035;-73
2022/05/17 12:47:47;;;;;;;1.05;0.80;;;24.70;63.40;;;;;;5114365;28;20052;-73
2022/05/17 12:50:18;;;;;;;1.80;1.00;;;24.80;63.40;;;;;;5114771;28;20122;-73
2022/05/17 12:52:46;;;;;;;0.70;0.70;;;24.70;63.40;;;;;;5096840;28;20039;-72
2022/05/17 12:55:24;;;;;;;0.57;0.57;;;24.80;63.40;;;;;;5114128;28;20523;-72
2022/05/17 12:57:52;;;;;;;0.85;0.75;;;24.80;63.40;;;;;;5095011;28;20469;-72
2022/05/17 13:00:29;;;;;;;0.98;0.65;;;24.70;63.50;;;;;;5112610;28;20042;-72
2022/05/17 13:03:01;;;;;;;0.50;0.50;;;24.70;63.50;;;;;;5113409;28;20078;-72
2022/05/17 13:05:35;;;;;;;1.02;0.60;;;24.70;63.60;;;;;;5095671;28;20405;-72
2022/05/17 13:08:07;;;;;;;1.83;1.00;;;24.70;63.40;;;;;;5114161;28;20050;-73
2022/05/17 13:10:35;;;;;;;1.17;0.63;;;24.70;63.30;;;;;;5114232;28;20043;-73
2022/05/17 13:13:19;;;;;;;0.73;0.60;;;24.70;63.20;;;;;;5095851;28;20055;-71
2022/05/17 13:15:53;;;;;;;0.60;0.50;;;24.60;63.20;;;;;;5113566;28;20116;-73
2022/05/17 13:18:19;;;;;;;0.75;0.70;;;24.60;63.20;;;;;;5115542;28;20028;-74
2022/05/17 13:20:48;;;;;;;0.65;0.52;;;24.70;63.10;;;;;;5119873;28;20035;-74
2022/05/17 13:23:18;;;;;;;0.60;0.60;;;24.60;63.10;;;;;;5095998;28;20036;-75
2022/05/17 13:25:46;;;;;;;0.40;0.40;;;24.60;63.10;;;;;;5114251;28;20489;-73
2022/05/17 13:28:24;;;;;;;1.95;0.55;;;24.60;63.00;;;;;;5114269;28;20036;-73
2022/05/17 13:30:50;;;;;;;0.60;0.60;;;24.60;62.90;;;;;;5078564;28;20039;-74